Piety Hill, Illinois
Current Conditions -  °F | °C
As of 7:55 AM on Monday 22 Dec 2014 (Local Time) from KVYS Reporting Station
Haze Haze  
Wind Chill: 24°   Ceiling: 5000
Heat Index: 34°   Visibility: 5mi
Dew Point: 31°   Wind: 16mph
Humidity: 86%   Direction: 120°ESE
Pressure: 29.86"   Gusts: 20mph
Location:  41.2837°N, 89.0395°W
Report Text: KVYS 221355Z AUTO 12014G17KT 5SM BR SCT025 OVC050 01/M01 A2986 RMK AO2 T00131008
Loading
Personal Weather Stations






























Interactive Weather Map New forecast layout! Learn more

10-Day Weather Forecast

Advertisements
Track Severe Weather on mobile